createdAt,value
2023-01-01T00:00:26.849Z,430.45
2023-01-01T00:02:36.436Z,442.05
2023-01-01T00:04:40.245Z,426.08
2023-01-01T00:06:45.375Z,421.00
2023-01-01T00:08:49.009Z,431.05
2023-01-01T00:10:51.484Z,440.00
2023-01-01T00:12:54.938Z,422.30
2023-01-01T00:14:59.704Z,441.42
2023-01-01T00:17:03.125Z,447.67
2023-01-01T00:19:06.669Z,450.83
2023-01-01T00:21:17.651Z,436.52
2023-01-01T00:23:21.077Z,431.63
2023-01-01T00:25:24.935Z,427.45
2023-01-01T00:27:28.297Z,454.30
2023-01-01T00:29:32.641Z,436.25
2023-01-01T00:31:37.389Z,435.02
2023-01-01T00:33:41.208Z,415.30
2023-01-01T00:35:44.530Z,445.83
2023-01-01T00:37:47.848Z,414.38
2023-01-01T00:39:51.238Z,404.75
2023-01-01T00:41:54.562Z,429.35
2023-01-01T00:43:57.857Z,423.48
2023-01-01T00:46:01.370Z,428.15
2023-01-01T00:48:06.590Z,438.73
2023-01-01T00:50:10.310Z,410.98
2023-01-01T00:52:13.673Z,416.73
2023-01-01T00:54:16.947Z,416.05
2023-01-01T00:56:21.238Z,410.83
2023-01-01T00:58:26.351Z,399.20
2023-01-01T01:00:29.652Z,404.90
2023-01-01T01:02:33.234Z,431.35
2023-01-01T01:04:38.080Z,416.92
2023-01-01T01:06:41.528Z,389.17
2023-01-01T01:08:46.435Z,385.48
2023-01-01T01:10:49.771Z,422.98
2023-01-01T01:12:53.216Z,398.30
2023-01-01T01:14:56.660Z,404.42
2023-01-01T01:17:00.002Z,393.05
2023-01-01T01:19:06.447Z,374.98
2023-01-01T01:21:11.246Z,400.65
2023-01-01T01:23:14.606Z,428.20
2023-01-01T01:25:18.179Z,403.20
2023-01-01T01:27:22.408Z,390.35
2023-01-01T01:29:26.022Z,412.25
2023-01-01T01:31:31.059Z,394.27
2023-01-01T01:33:34.579Z,401.05
2023-01-01T01:35:38.199Z,397.85
2023-01-01T01:37:42.859Z,402.52
2023-01-01T01:39:51.747Z,422.05
2023-01-01T01:41:57.168Z,415.40
2023-01-01T01:44:03.078Z,406.58
2023-01-01T01:46:08.895Z,389.25
2023-01-01T01:48:12.639Z,383.38
2023-01-01T01:50:24.503Z,399.38
2023-01-01T01:52:29.627Z,432.23
2023-01-01T01:54:34.307Z,404.52
2023-01-01T01:56:44.061Z,418.02
2023-01-01T01:58:47.498Z,413.35
2023-01-01T02:00:51.284Z,409.73
2023-01-01T02:02:59.525Z,400.00
2023-01-01T02:05:03.742Z,407.42
2023-01-01T02:07:08.241Z,388.98
2023-01-01T02:09:12.508Z,394.08
2023-01-01T02:11:21.775Z,394.40
2023-01-01T02:13:25.835Z,408.63
2023-01-01T02:15:32.442Z,414.27
2023-01-01T02:17:45.065Z,384.05
2023-01-01T02:20:08.172Z,411.60
2023-01-01T02:22:16.801Z,383.38
2023-01-01T02:24:39.392Z,384.38
2023-01-01T02:26:53.559Z,404.48
2023-01-01T02:29:03.529Z,400.05
2023-01-01T02:31:08.967Z,383.60
2023-01-01T02:33:17.655Z,396.60
2023-01-01T02:35:38.401Z,406.05
2023-01-01T02:37:42.354Z,431.88
2023-01-01T02:39:51.286Z,381.95
2023-01-01T02:41:57.163Z,414.63
2023-01-01T02:46:08.405Z,409.92
2023-01-01T02:48:37.543Z,396.13
2023-01-01T02:50:41.084Z,388.25
2023-01-01T02:52:57.068Z,370.20
2023-01-01T02:55:05.813Z,406.30
2023-01-01T02:57:16.600Z,384.17
2023-01-01T02:59:49.592Z,412.67
2023-01-01T03:02:00.191Z,387.55
2023-01-01T03:04:12.988Z,407.02
2023-01-01T03:06:27.157Z,378.15
2023-01-01T03:08:44.237Z,385.58
2023-01-01T03:10:57.837Z,386.77
2023-01-01T03:13:06.700Z,386.70
2023-01-01T03:15:23.264Z,371.67
2023-01-01T03:17:31.554Z,393.55
2023-01-01T03:19:38.708Z,389.02
2023-01-01T03:21:44.611Z,397.88
2023-01-01T03:23:54.619Z,428.10
2023-01-01T03:26:03.723Z,397.33
2023-01-01T03:28:13.464Z,384.48
2023-01-01T03:30:20.872Z,401.38
2023-01-01T03:32:52.169Z,384.85
2023-01-01T03:34:58.371Z,389.55
2023-01-01T03:37:06.295Z,370.20
2023-01-01T03:39:22.137Z,387.42
2023-01-01T03:41:31.929Z,391.52
2023-01-01T03:43:43.116Z,381.08
2023-01-01T03:45:52.095Z,381.63
2023-01-01T03:47:56.023Z,382.92
2023-01-01T03:50:00.874Z,384.17
2023-01-01T03:52:18.873Z,384.73
2023-01-01T03:54:31.934Z,393.90
2023-01-01T03:56:41.530Z,415.20
2023-01-01T03:58:52.512Z,397.77
2023-01-01T04:01:05.317Z,399.88
2023-01-01T04:03:12.922Z,376.05
2023-01-01T04:05:17.157Z,399.10
2023-01-01T04:07:21.864Z,385.92
2023-01-01T04:09:31.030Z,396.55
2023-01-01T04:11:53.539Z,391.27
2023-01-01T04:13:56.984Z,405.75
2023-01-01T04:16:01.801Z,398.38
2023-01-01T04:18:05.640Z,391.13
2023-01-01T04:20:10.147Z,391.63
2023-01-01T04:22:13.564Z,417.15
2023-01-01T04:24:16.859Z,412.60
2023-01-01T04:26:20.302Z,403.00
2023-01-01T04:28:23.701Z,375.95
2023-01-01T04:30:28.222Z,398.80
2023-01-01T04:32:34.422Z,388.98
2023-01-01T04:34:37.840Z,411.42
2023-01-01T04:36:41.376Z,397.08
2023-01-01T04:38:44.763Z,401.52
2023-01-01T04:40:59.111Z,403.30
2023-01-01T04:43:02.411Z,370.88
2023-01-01T04:45:06.789Z,392.35
2023-01-01T04:47:10.468Z,378.38
2023-01-01T04:49:15.281Z,381.55
2023-01-01T04:51:21.009Z,388.25
2023-01-01T04:53:24.486Z,397.52
2023-01-01T04:55:27.846Z,379.63
2023-01-01T04:57:31.562Z,382.90
2023-01-01T04:59:34.886Z,418.55
2023-01-01T05:01:38.357Z,404.20
2023-01-01T05:03:41.855Z,431.08
2023-01-01T05:05:51.281Z,419.10
2023-01-01T05:07:54.906Z,383.75
2023-01-01T05:09:58.874Z,401.67
2023-01-01T05:12:02.361Z,388.45
2023-01-01T05:14:06.512Z,395.13
2023-01-01T05:16:12.031Z,405.90
2023-01-01T05:18:15.494Z,391.92
2023-01-01T05:20:18.773Z,411.58
2023-01-01T05:22:23.486Z,402.92
2023-01-01T05:24:26.854Z,407.40
2023-01-01T05:26:32.288Z,392.42
2023-01-01T05:28:35.655Z,378.48
2023-01-01T05:30:40.612Z,402.83
2023-01-01T05:32:44.014Z,388.77
2023-01-01T05:34:47.355Z,406.90
2023-01-01T05:36:50.721Z,391.23
2023-01-01T05:38:56.038Z,384.38
2023-01-01T05:40:59.756Z,438.20
2023-01-01T05:43:03.120Z,399.58
2023-01-01T05:45:07.691Z,392.15
2023-01-01T05:47:11.056Z,414.02
2023-01-01T05:49:14.834Z,385.70
2023-01-01T05:51:20.367Z,390.90
2023-01-01T05:53:23.739Z,387.98
2023-01-01T05:55:28.532Z,398.67
2023-01-01T05:57:31.851Z,372.58
2023-01-01T05:59:35.174Z,391.33
2023-01-01T06:01:45.112Z,368.65
2023-01-01T06:03:49.877Z,390.65
2023-01-01T06:05:53.240Z,375.17
2023-01-01T06:07:56.612Z,392.42
2023-01-01T06:10:00.108Z,386.35
2023-01-01T06:12:05.093Z,383.38
2023-01-01T06:14:08.503Z,382.58
2023-01-01T06:16:12.216Z,402.98
2023-01-01T06:18:15.600Z,404.70
2023-01-01T06:20:19.339Z,388.52
2023-01-01T06:22:22.668Z,386.65
2023-01-01T06:24:25.998Z,387.17
2023-01-01T06:26:31.334Z,373.48
2023-01-01T06:28:36.207Z,374.05
2023-01-01T06:30:39.821Z,400.23
2023-01-01T06:32:43.320Z,384.25
2023-01-01T06:34:46.625Z,400.08
2023-01-01T06:36:50.005Z,416.67
2023-01-01T06:38:55.612Z,382.90
2023-01-01T06:40:59.867Z,362.25
2023-01-01T06:43:03.206Z,389.30
2023-01-01T06:45:09.623Z,402.23
2023-01-01T06:47:12.973Z,401.83
2023-01-01T06:49:16.415Z,402.48
2023-01-01T06:51:22.457Z,386.50
2023-01-01T06:53:26.617Z,372.02
2023-01-01T06:55:29.987Z,382.83
2023-01-01T06:57:34.510Z,424.55
2023-01-01T06:59:37.818Z,381.90
2023-01-01T07:01:44.419Z,365.90
2023-01-01T07:03:52.794Z,390.65
2023-01-01T07:05:56.214Z,364.10
2023-01-01T07:07:59.643Z,362.35
2023-01-01T07:10:02.946Z,365.52
2023-01-01T07:12:06.699Z,365.48
2023-01-01T07:14:10.095Z,389.35
2023-01-01T07:16:15.259Z,376.20
2023-01-01T07:18:20.249Z,393.80
2023-01-01T07:20:23.596Z,406.90
2023-01-01T07:22:27.068Z,350.70
2023-01-01T07:24:30.403Z,370.52
2023-01-01T07:26:34.538Z,390.92
2023-01-01T07:28:37.880Z,377.00
2023-01-01T07:30:41.343Z,365.55
2023-01-01T07:32:44.799Z,354.27
2023-01-01T07:34:50.934Z,363.95
2023-01-01T07:36:55.297Z,386.75
2023-01-01T07:38:58.579Z,363.65
2023-01-01T07:41:01.927Z,381.73
2023-01-01T07:43:05.610Z,390.42
2023-01-01T07:45:10.606Z,373.30
2023-01-01T07:47:21.789Z,378.15
2023-01-01T07:49:25.368Z,378.48
2023-01-01T07:51:30.150Z,377.20
2023-01-01T07:53:33.586Z,355.52
2023-01-01T07:55:37.117Z,384.98
2023-01-01T07:57:40.471Z,384.52
2023-01-01T07:59:43.906Z,377.65
2023-01-01T08:01:47.472Z,381.80
2023-01-01T08:03:53.993Z,383.38
2023-01-01T08:05:57.282Z,361.23
2023-01-01T08:08:02.232Z,419.15
2023-01-01T08:10:06.299Z,376.40
2023-01-01T08:12:09.696Z,365.85
2023-01-01T08:14:13.216Z,366.63
2023-01-01T08:16:16.578Z,379.30
2023-01-01T08:18:20.059Z,377.55
2023-01-01T08:20:23.379Z,367.75
2023-01-01T08:22:26.767Z,350.30
2023-01-01T08:24:31.521Z,366.83
2023-01-01T08:26:36.972Z,359.67
2023-01-01T08:28:40.297Z,397.85
2023-01-01T08:30:43.630Z,383.60
2023-01-01T08:32:48.332Z,363.08
2023-01-01T08:34:51.774Z,370.17
2023-01-01T08:36:55.168Z,349.20
2023-01-01T08:38:58.482Z,339.77
2023-01-01T08:41:03.127Z,361.10
2023-01-01T08:43:06.471Z,368.45
2023-01-01T08:45:10.913Z,353.48
2023-01-01T08:47:19.765Z,354.67
2023-01-01T08:49:23.259Z,347.05
2023-01-01T08:51:26.764Z,360.02
2023-01-01T08:53:31.380Z,375.48
2023-01-01T08:55:34.888Z,368.33
2023-01-01T08:57:39.665Z,356.85
2023-01-01T08:59:42.939Z,371.50
2023-01-01T09:01:46.385Z,352.33
2023-01-01T09:03:49.848Z,337.05
2023-01-01T09:05:53.214Z,363.90
2023-01-01T09:07:56.579Z,362.50
2023-01-01T09:09:59.928Z,366.98
2023-01-01T09:12:06.351Z,361.05
2023-01-01T09:14:11.237Z,384.38
2023-01-01T09:16:14.643Z,350.98
2023-01-01T09:18:18.089Z,352.95
2023-01-01T09:20:21.441Z,353.48
2023-01-01T09:22:24.732Z,362.27
2023-01-01T09:24:28.498Z,365.27
2023-01-01T09:26:31.834Z,375.23
2023-01-01T09:28:35.768Z,381.95
2023-01-01T09:30:40.632Z,340.75
2023-01-01T09:32:43.916Z,354.90
2023-01-01T09:34:52.166Z,345.65
2023-01-01T09:36:55.923Z,330.40
2023-01-01T09:39:00.576Z,358.00
2023-01-01T09:41:15.987Z,340.83
2023-01-01T09:43:28.262Z,353.98
2023-01-01T09:45:37.762Z,338.42
2023-01-01T09:47:47.102Z,334.15
2023-01-01T09:49:51.923Z,355.40
2023-01-01T09:51:58.627Z,344.25
2023-01-01T09:54:07.658Z,359.73
2023-01-01T09:56:16.876Z,354.55
2023-01-01T09:58:25.197Z,350.30
2023-01-01T10:00:34.345Z,357.23
2023-01-01T10:02:53.957Z,342.35
2023-01-01T10:05:04.440Z,363.05
2023-01-01T10:07:18.713Z,354.77
2023-01-01T10:09:28.620Z,364.38
2023-01-01T10:11:39.941Z,367.73
2023-01-01T10:13:45.157Z,360.90
2023-01-01T10:15:56.505Z,359.23
2023-01-01T10:18:06.385Z,362.13
2023-01-01T10:20:19.856Z,358.77
2023-01-01T10:22:27.796Z,371.02
2023-01-01T10:24:44.191Z,382.00
2023-01-01T10:26:49.083Z,359.17
2023-01-01T10:29:02.575Z,339.02
2023-01-01T10:31:22.191Z,349.17
2023-01-01T10:33:27.113Z,346.42
2023-01-01T10:35:36.209Z,338.52
2023-01-01T10:37:40.338Z,360.27
2023-01-01T10:39:46.094Z,372.63
2023-01-01T10:41:50.200Z,341.85
2023-01-01T10:43:53.685Z,363.35
2023-01-01T10:45:57.584Z,360.77
2023-01-01T10:48:10.861Z,374.33
2023-01-01T10:50:15.718Z,360.88
2023-01-01T10:52:19.705Z,354.38
2023-01-01T10:54:32.121Z,372.38
2023-01-01T10:56:43.421Z,333.42
2023-01-01T10:58:48.505Z,353.10
2023-01-01T11:00:59.361Z,352.05
2023-01-01T11:03:15.355Z,373.38
2023-01-01T11:05:22.877Z,353.15
2023-01-01T11:07:30.585Z,392.35
2023-01-01T11:09:37.069Z,392.08
2023-01-01T11:11:44.962Z,354.55
2023-01-01T11:13:53.534Z,362.98
2023-01-01T11:15:57.299Z,342.73
2023-01-01T11:18:06.684Z,368.67
2023-01-01T11:20:21.064Z,343.65
2023-01-01T11:22:39.685Z,359.08
2023-01-01T11:24:43.056Z,341.40
2023-01-01T11:26:53.984Z,362.77
2023-01-01T11:29:04.980Z,346.17
2023-01-01T11:31:15.103Z,345.83
2023-01-01T11:33:19.149Z,361.67
2023-01-01T11:35:26.051Z,364.80
2023-01-01T11:37:33.154Z,352.58
2023-01-01T11:39:38.034Z,343.92
2023-01-01T11:41:44.161Z,373.67
2023-01-01T11:43:50.008Z,345.90
2023-01-01T11:45:55.397Z,364.45
2023-01-01T11:48:01.364Z,354.00
2023-01-01T11:50:19.164Z,366.75
2023-01-01T11:52:37.807Z,355.08
2023-01-01T11:54:41.505Z,348.02
2023-01-01T11:56:45.626Z,357.75
2023-01-01T11:58:54.895Z,351.17
2023-01-01T12:01:02.378Z,352.73
2023-01-01T12:03:17.511Z,337.48
2023-01-01T12:05:25.390Z,352.30
2023-01-01T12:07:35.454Z,350.73
2023-01-01T12:09:43.652Z,372.40
2023-01-01T12:11:52.528Z,365.27
2023-01-01T12:14:01.851Z,352.08
2023-01-01T12:16:12.232Z,374.75
2023-01-01T12:18:23.611Z,370.33
2023-01-01T12:20:29.316Z,361.48
2023-01-01T12:22:34.321Z,381.08
2023-01-01T12:24:38.073Z,351.25
2023-01-01T12:26:55.629Z,356.05
2023-01-01T12:29:32.474Z,387.38
2023-01-01T12:31:49.170Z,367.20
2023-01-01T12:34:05.155Z,375.60
2023-01-01T12:36:20.929Z,362.80
2023-01-01T12:38:41.837Z,349.13
2023-01-01T12:40:52.485Z,352.48
2023-01-01T12:43:03.442Z,354.92
2023-01-01T12:45:31.244Z,362.95
2023-01-01T12:47:42.390Z,356.45
2023-01-01T12:50:03.381Z,350.88
2023-01-01T12:52:22.282Z,375.60
2023-01-01T12:55:04.401Z,367.23
2023-01-01T12:57:14.211Z,359.60
2023-01-01T12:59:22.493Z,371.48
2023-01-01T13:01:33.549Z,354.23
2023-01-01T13:03:43.881Z,370.10
2023-01-01T13:05:51.045Z,377.05
2023-01-01T13:08:01.008Z,353.90
2023-01-01T13:10:11.298Z,358.35
2023-01-01T13:12:18.895Z,356.67
2023-01-01T13:14:22.436Z,360.02
2023-01-01T13:16:38.024Z,365.17
2023-01-01T13:18:41.504Z,377.95
2023-01-01T13:20:47.032Z,369.25
2023-01-01T13:22:50.501Z,362.10
2023-01-01T13:25:06.684Z,359.67
2023-01-01T13:27:11.419Z,367.30
2023-01-01T13:29:44.074Z,369.90
2023-01-01T13:32:07.757Z,343.00
2023-01-01T13:34:58.890Z,345.95
2023-01-01T13:37:26.794Z,349.85
2023-01-01T13:39:52.298Z,350.65
2023-01-01T13:41:57.045Z,338.80
2023-01-01T13:44:27.221Z,323.60
2023-01-01T13:46:47.359Z,355.92
2023-01-01T13:49:13.267Z,348.50
2023-01-01T13:52:04.325Z,344.27
2023-01-01T13:54:10.429Z,339.73
2023-01-01T13:56:39.023Z,368.70
2023-01-01T13:59:07.779Z,344.40
2023-01-01T14:01:41.200Z,384.10
2023-01-01T14:03:48.341Z,345.20
2023-01-01T14:05:58.088Z,361.23
2023-01-01T14:08:01.421Z,365.33
2023-01-01T14:10:19.176Z,355.83
2023-01-01T14:12:23.727Z,348.38
2023-01-01T14:14:29.549Z,353.63
2023-01-01T14:16:33.218Z,347.25
2023-01-01T14:18:41.201Z,396.05
2023-01-01T14:20:47.190Z,373.92
2023-01-01T14:22:53.188Z,369.23
2023-01-01T14:24:57.689Z,374.83
2023-01-01T14:27:01.383Z,379.27
2023-01-01T14:29:08.717Z,359.98
2023-01-01T14:31:17.448Z,354.08
2023-01-01T14:33:23.962Z,364.45
2023-01-01T14:35:28.379Z,382.08
2023-01-01T14:37:31.735Z,380.88
2023-01-01T14:39:36.885Z,378.67
2023-01-01T14:41:42.590Z,370.67
2023-01-01T14:43:48.971Z,354.92
2023-01-01T14:45:53.228Z,359.98
2023-01-01T14:47:58.783Z,396.92
2023-01-01T14:50:06.227Z,385.20
2023-01-01T14:52:16.971Z,349.70
2023-01-01T14:54:23.779Z,363.95
2023-01-01T14:56:29.257Z,390.08
2023-01-01T14:58:33.469Z,376.67
2023-01-01T15:00:36.804Z,378.60
2023-01-01T15:02:41.046Z,366.23
2023-01-01T15:04:45.867Z,357.80
2023-01-01T15:06:54.608Z,364.90
2023-01-01T15:08:58.179Z,375.67
2023-01-01T15:11:04.639Z,371.60
2023-01-01T15:13:08.877Z,360.15
2023-01-01T15:15:42.909Z,371.35
2023-01-01T15:17:48.063Z,379.20
2023-01-01T15:20:04.981Z,342.48
2023-01-01T15:22:12.836Z,341.02
2023-01-01T15:24:20.428Z,352.45
2023-01-01T15:26:29.325Z,347.70
2023-01-01T15:28:32.798Z,350.92
2023-01-01T15:30:37.491Z,344.35
2023-01-01T15:32:40.869Z,376.73
2023-01-01T15:34:49.213Z,369.95
2023-01-01T15:36:56.020Z,363.15
2023-01-01T15:39:00.509Z,334.65
2023-01-01T15:41:24.478Z,337.08
2023-01-01T15:43:30.675Z,322.90
2023-01-01T15:45:36.705Z,334.25
2023-01-01T15:47:40.461Z,324.50
2023-01-01T15:49:44.092Z,337.27
2023-01-01T15:51:47.874Z,350.45
2023-01-01T15:53:58.834Z,340.92
2023-01-01T15:56:06.746Z,321.17
2023-01-01T15:58:20.572Z,337.40
2023-01-01T16:00:26.982Z,339.88
2023-01-01T16:02:34.159Z,339.20
2023-01-01T16:04:37.724Z,333.55
2023-01-01T16:06:45.756Z,338.38
2023-01-01T16:08:49.225Z,329.77
2023-01-01T16:10:54.132Z,353.08
2023-01-01T16:12:57.534Z,333.08
2023-01-01T16:15:00.942Z,334.10
2023-01-01T16:17:04.404Z,359.38
2023-01-01T16:19:12.754Z,342.17
2023-01-01T16:21:16.141Z,338.55
2023-01-01T16:23:19.548Z,358.23
2023-01-01T16:25:23.878Z,349.33
2023-01-01T16:27:28.595Z,331.65
2023-01-01T16:29:31.935Z,322.98
2023-01-01T16:31:35.511Z,316.73
2023-01-01T16:33:38.869Z,323.70
2023-01-01T16:35:42.472Z,332.40
2023-01-01T16:37:45.782Z,330.58
2023-01-01T16:39:49.067Z,324.80
2023-01-01T16:41:52.809Z,313.83
2023-01-01T16:43:58.149Z,326.80
2023-01-01T16:46:02.531Z,326.13
2023-01-01T16:48:07.598Z,329.35
2023-01-01T16:50:12.119Z,326.48
2023-01-01T16:52:15.422Z,338.58
2023-01-01T16:54:18.757Z,303.52
2023-01-01T16:56:22.330Z,317.35
2023-01-01T17:00:51.360Z,304.33
2023-01-01T17:02:54.890Z,320.73
2023-01-01T17:04:58.723Z,313.23
2023-01-01T17:07:02.044Z,317.42
2023-01-01T17:09:05.570Z,319.73
2023-01-01T17:11:13.931Z,319.60
2023-01-01T17:13:17.298Z,316.10
2023-01-01T17:15:20.857Z,319.77
2023-01-01T17:17:25.607Z,323.25
2023-01-01T17:19:29.045Z,315.45
2023-01-01T17:21:32.503Z,327.67
2023-01-01T17:23:36.702Z,308.95
2023-01-01T17:25:40.324Z,328.60
2023-01-01T17:27:45.344Z,311.40
2023-01-01T17:29:48.692Z,319.70
2023-01-01T17:31:52.792Z,336.23
2023-01-01T17:33:57.694Z,307.05
2023-01-01T17:36:01.344Z,315.77
2023-01-01T17:38:04.643Z,319.38
2023-01-01T17:40:09.257Z,303.17
2023-01-01T17:42:12.700Z,297.83
2023-01-01T17:44:16.080Z,294.30
2023-01-01T17:46:22.028Z,328.63
2023-01-01T17:48:26.056Z,318.10
2023-01-01T17:50:30.721Z,316.05
2023-01-01T17:52:34.034Z,301.98
2023-01-01T17:54:37.454Z,292.63
2023-01-01T17:56:41.027Z,307.60
2023-01-01T17:58:46.776Z,300.10
2023-01-01T18:00:50.394Z,333.20
2023-01-01T18:02:53.812Z,322.15
2023-01-01T18:04:57.178Z,291.08
2023-01-01T18:07:06.026Z,297.08
2023-01-01T18:09:13.438Z,291.40
2023-01-01T18:11:16.764Z,305.80
2023-01-01T18:13:21.495Z,297.67
2023-01-01T18:15:24.998Z,303.23
2023-01-01T18:17:28.431Z,312.70
2023-01-01T18:19:32.435Z,309.75
2023-01-01T18:21:35.795Z,313.48
2023-01-01T18:23:41.398Z,326.90
2023-01-01T18:25:44.703Z,327.88
2023-01-01T18:27:55.610Z,294.50
2023-01-01T18:30:00.899Z,307.83
2023-01-01T18:32:04.782Z,302.95
2023-01-01T18:34:08.148Z,304.95
2023-01-01T18:36:13.496Z,291.70
2023-01-01T18:38:18.008Z,302.13
2023-01-01T18:40:23.630Z,283.13
2023-01-01T18:42:39.691Z,287.92
2023-01-01T18:44:43.466Z,313.02
2023-01-01T18:46:53.619Z,292.70
2023-01-01T18:48:59.364Z,277.77
2023-01-01T18:51:02.873Z,319.55
2023-01-01T18:53:17.041Z,278.15
2023-01-01T18:55:26.895Z,290.02
2023-01-01T18:57:30.397Z,295.17
2023-01-01T18:59:33.743Z,294.40
2023-01-01T19:01:37.236Z,301.45
2023-01-01T19:03:41.608Z,302.13
2023-01-01T19:05:47.538Z,282.02
2023-01-01T19:07:54.406Z,293.50
2023-01-01T19:09:59.212Z,287.45
2023-01-01T19:12:11.900Z,283.25
2023-01-01T19:14:17.552Z,282.00
2023-01-01T19:16:28.588Z,274.02
2023-01-01T19:18:34.464Z,290.38
2023-01-01T19:20:38.141Z,279.83
2023-01-01T19:22:41.495Z,306.48
2023-01-01T19:24:45.559Z,290.92
2023-01-01T19:26:49.556Z,290.27
2023-01-01T19:28:56.216Z,295.20
2023-01-01T19:31:00.276Z,308.80
2023-01-01T19:33:03.705Z,307.35
2023-01-01T19:35:10.697Z,281.25
2023-01-01T19:37:16.688Z,308.17
2023-01-01T19:39:20.556Z,309.15
2023-01-01T19:41:23.898Z,291.90
2023-01-01T19:43:27.261Z,296.08
2023-01-01T19:45:31.919Z,295.83
2023-01-01T19:47:38.238Z,312.10
2023-01-01T19:49:41.582Z,282.88
2023-01-01T19:51:45.049Z,282.58
2023-01-01T19:53:48.404Z,289.30
2023-01-01T19:55:51.903Z,288.73
2023-01-01T19:57:55.247Z,289.20
2023-01-01T19:59:58.844Z,297.27
2023-01-01T20:02:43.487Z,283.02
2023-01-01T20:04:27.076Z,277.33
2023-01-01T20:06:30.611Z,301.58
2023-01-01T20:08:34.308Z,294.27
2023-01-01T20:10:37.756Z,283.90
2023-01-01T20:12:42.202Z,272.35
2023-01-01T20:14:45.573Z,278.83
2023-01-01T20:16:50.788Z,278.42
2023-01-01T20:18:55.606Z,294.52
2023-01-01T20:21:20.537Z,299.42
2023-01-01T20:23:29.087Z,285.52
2023-01-01T20:25:32.388Z,281.55
2023-01-01T20:27:56.156Z,285.10
2023-01-01T20:29:58.612Z,289.60
2023-01-01T20:32:02.047Z,309.65
2023-01-01T20:34:06.935Z,288.00
2023-01-01T20:36:28.253Z,294.83
2023-01-01T20:38:36.848Z,279.60
2023-01-01T20:40:43.283Z,284.33
2023-01-01T20:42:46.678Z,294.48
2023-01-01T20:44:50.119Z,303.45
2023-01-01T20:46:54.168Z,284.02
2023-01-01T20:48:57.985Z,284.42
2023-01-01T20:51:02.792Z,305.52
2023-01-01T20:53:06.109Z,301.13
2023-01-01T20:55:09.824Z,285.48
2023-01-01T20:57:13.301Z,281.25
2023-01-01T20:59:35.958Z,286.85
2023-01-01T21:01:40.307Z,302.05
2023-01-01T21:03:43.876Z,317.75
2023-01-01T21:05:47.208Z,305.17
2023-01-01T21:07:51.856Z,287.45
2023-01-01T21:09:55.278Z,284.55
2023-01-01T21:11:58.731Z,282.25
2023-01-01T21:14:02.723Z,309.52
2023-01-01T21:16:16.686Z,292.35
2023-01-01T21:18:20.105Z,295.35
2023-01-01T21:20:23.485Z,298.35
2023-01-01T21:22:28.372Z,309.45
2023-01-01T21:24:38.234Z,299.38
2023-01-01T21:26:41.751Z,303.48
2023-01-01T21:28:45.374Z,318.02
2023-01-01T21:30:51.240Z,309.17
2023-01-01T21:32:54.578Z,295.98
2023-01-01T21:34:58.028Z,314.23
2023-01-01T21:37:07.000Z,301.27
2023-01-01T21:39:12.724Z,306.85
2023-01-01T21:41:23.689Z,309.50
2023-01-01T21:43:37.991Z,301.67
2023-01-01T21:45:45.365Z,303.92
2023-01-01T21:47:48.928Z,334.90
2023-01-01T21:49:55.848Z,314.55
2023-01-01T21:52:02.003Z,309.15
2023-01-01T21:54:19.313Z,315.58
2023-01-01T21:56:29.780Z,319.65
2023-01-01T21:58:53.014Z,325.65
2023-01-01T22:00:56.378Z,322.85
2023-01-01T22:02:59.681Z,333.42
2023-01-01T22:05:29.753Z,310.40
2023-01-01T22:10:01.873Z,299.10
2023-01-01T22:12:28.510Z,331.33
2023-01-01T22:14:38.773Z,307.65
2023-01-01T22:16:42.694Z,308.67
2023-01-01T22:18:46.160Z,313.63
2023-01-01T22:20:49.944Z,314.35
2023-01-01T22:22:53.245Z,306.83
2023-01-01T22:24:59.721Z,312.70
2023-01-01T22:27:24.583Z,318.90
2023-01-01T22:29:32.037Z,320.70
2023-01-01T22:31:36.355Z,310.45
2023-01-01T22:33:45.954Z,332.05
2023-01-01T22:35:49.382Z,336.55
2023-01-01T22:37:56.016Z,319.75
2023-01-01T22:40:00.966Z,313.23
2023-01-01T22:42:04.545Z,322.00
2023-01-01T22:44:08.081Z,322.67
2023-01-01T22:46:18.123Z,330.08
2023-01-01T22:48:24.807Z,318.63
2023-01-01T22:50:30.035Z,330.58
2023-01-01T22:52:33.320Z,318.90
2023-01-01T22:54:36.643Z,325.08
2023-01-01T22:56:40.118Z,327.25
2023-01-01T22:58:43.457Z,330.35
2023-01-01T23:00:47.553Z,321.30
2023-01-01T23:02:52.236Z,327.17
2023-01-01T23:04:55.591Z,324.10
2023-01-01T23:06:58.986Z,324.13
2023-01-01T23:09:02.744Z,334.25
2023-01-01T23:11:06.223Z,322.65
2023-01-01T23:13:27.099Z,336.95
2023-01-01T23:15:44.455Z,307.48
2023-01-01T23:17:47.912Z,321.83
2023-01-01T23:19:53.534Z,340.95
2023-01-01T23:21:57.160Z,330.27
2023-01-01T23:24:02.279Z,322.05
2023-01-01T23:26:06.343Z,333.35
2023-01-01T23:28:10.150Z,338.63
2023-01-01T23:30:14.821Z,320.75
2023-01-01T23:32:18.494Z,334.45
2023-01-01T23:34:21.957Z,332.88
2023-01-01T23:36:28.465Z,333.83
2023-01-01T23:38:32.317Z,348.02
2023-01-01T23:40:35.747Z,337.42
2023-01-01T23:42:39.423Z,335.38
2023-01-01T23:44:42.813Z,340.50
2023-01-01T23:46:47.179Z,341.77
2023-01-01T23:48:53.449Z,347.45
2023-01-01T23:50:57.277Z,345.83
2023-01-01T23:53:02.353Z,342.10
2023-01-01T23:55:06.623Z,333.45
2023-01-01T23:57:09.967Z,342.52
2023-01-01T23:59:13.849Z,359.15
